sensor_id;sensor_type;location;lat;lon;timestamp;P1;durP1;ratioP1;P2;durP2;ratioP2
30080;SDS011;16902;50.816;12.828;2023-04-24T00:02:14;4.45;;;4.25;;
30080;SDS011;16902;50.816;12.828;2023-04-24T00:07:17;3.83;;;3.72;;
30080;SDS011;16902;50.816;12.828;2023-04-24T00:12:18;3.90;;;3.75;;
30080;SDS011;16902;50.816;12.828;2023-04-24T00:17:20;3.33;;;3.22;;
30080;SDS011;16902;50.816;12.828;2023-04-24T00:22:22;3.97;;;3.88;;
30080;SDS011;16902;50.816;12.828;2023-04-24T00:27:24;3.50;;;3.30;;
30080;SDS011;16902;50.816;12.828;2023-04-24T00:32:25;3.80;;;3.70;;
30080;SDS011;16902;50.816;12.828;2023-04-24T00:37:29;3.70;;;3.60;;
30080;SDS011;16902;50.816;12.828;2023-04-24T00:42:30;3.50;;;3.40;;
30080;SDS011;16902;50.816;12.828;2023-04-24T00:47:33;3.70;;;3.60;;
30080;SDS011;16902;50.816;12.828;2023-04-24T00:52:34;3.70;;;3.60;;
30080;SDS011;16902;50.816;12.828;2023-04-24T00:57:37;3.30;;;3.10;;
30080;SDS011;16902;50.816;12.828;2023-04-24T01:02:40;3.55;;;3.45;;
30080;SDS011;16902;50.816;12.828;2023-04-24T01:07:46;3.33;;;3.13;;
30080;SDS011;16902;50.816;12.828;2023-04-24T01:12:50;3.38;;;3.28;;
30080;SDS011;16902;50.816;12.828;2023-04-24T01:17:53;3.35;;;3.15;;
30080;SDS011;16902;50.816;12.828;2023-04-24T01:22:55;3.33;;;3.22;;
30080;SDS011;16902;50.816;12.828;2023-04-24T01:27:57;3.20;;;3.10;;
30080;SDS011;16902;50.816;12.828;2023-04-24T01:32:59;3.13;;;3.03;;
30080;SDS011;16902;50.816;12.828;2023-04-24T01:38:01;3.10;;;3.00;;
30080;SDS011;16902;50.816;12.828;2023-04-24T01:43:05;3.35;;;3.25;;
30080;SDS011;16902;50.816;12.828;2023-04-24T01:48:08;3.38;;;3.28;;
30080;SDS011;16902;50.816;12.828;2023-04-24T01:53:09;3.22;;;3.03;;
30080;SDS011;16902;50.816;12.828;2023-04-24T01:58:11;3.42;;;3.33;;
30080;SDS011;16902;50.816;12.828;2023-04-24T02:03:13;3.88;;;3.78;;
30080;SDS011;16902;50.816;12.828;2023-04-24T02:08:15;3.70;;;3.60;;
30080;SDS011;16902;50.816;12.828;2023-04-24T02:13:16;3.78;;;3.67;;
30080;SDS011;16902;50.816;12.828;2023-04-24T02:18:18;4.00;;;3.80;;
30080;SDS011;16902;50.816;12.828;2023-04-24T02:23:20;3.65;;;3.55;;
30080;SDS011;16902;50.816;12.828;2023-04-24T02:28:21;3.97;;;3.78;;
30080;SDS011;16902;50.816;12.828;2023-04-24T02:33:24;3.42;;;3.33;;
30080;SDS011;16902;50.816;12.828;2023-04-24T02:38:26;3.88;;;3.78;;
30080;SDS011;16902;50.816;12.828;2023-04-24T02:43:27;4.30;;;4.10;;
30080;SDS011;16902;50.816;12.828;2023-04-24T02:48:29;3.55;;;3.45;;
30080;SDS011;16902;50.816;12.828;2023-04-24T02:53:31;3.78;;;3.58;;
30080;SDS011;16902;50.816;12.828;2023-04-24T02:58:33;4.00;;;3.80;;
30080;SDS011;16902;50.816;12.828;2023-04-24T03:03:35;3.50;;;3.40;;
30080;SDS011;16902;50.816;12.828;2023-04-24T03:08:37;3.35;;;3.25;;
30080;SDS011;16902;50.816;12.828;2023-04-24T03:13:39;3.83;;;3.72;;
30080;SDS011;16902;50.816;12.828;2023-04-24T03:18:41;4.00;;;3.90;;
30080;SDS011;16902;50.816;12.828;2023-04-24T03:23:43;3.33;;;3.22;;
30080;SDS011;16902;50.816;12.828;2023-04-24T03:28:45;3.88;;;3.78;;
30080;SDS011;16902;50.816;12.828;2023-04-24T03:33:47;3.85;;;3.72;;
30080;SDS011;16902;50.816;12.828;2023-04-24T03:38:48;3.88;;;3.78;;
30080;SDS011;16902;50.816;12.828;2023-04-24T03:43:57;3.65;;;3.55;;
30080;SDS011;16902;50.816;12.828;2023-04-24T03:48:59;4.05;;;3.85;;
30080;SDS011;16902;50.816;12.828;2023-04-24T03:54:05;3.33;;;3.15;;
30080;SDS011;16902;50.816;12.828;2023-04-24T03:59:10;4.10;;;3.90;;
30080;SDS011;16902;50.816;12.828;2023-04-24T04:04:14;4.38;;;4.07;;
30080;SDS011;16902;50.816;12.828;2023-04-24T04:09:17;3.63;;;3.53;;
30080;SDS011;16902;50.816;12.828;2023-04-24T04:14:19;4.53;;;4.32;;
30080;SDS011;16902;50.816;12.828;2023-04-24T04:19:22;4.53;;;4.32;;
30080;SDS011;16902;50.816;12.828;2023-04-24T04:24:24;4.05;;;3.95;;
30080;SDS011;16902;50.816;12.828;2023-04-24T04:29:28;4.35;;;4.15;;
30080;SDS011;16902;50.816;12.828;2023-04-24T04:34:30;5.32;;;5.07;;
30080;SDS011;16902;50.816;12.828;2023-04-24T04:39:33;4.95;;;4.75;;
30080;SDS011;16902;50.816;12.828;2023-04-24T04:44:41;4.90;;;4.70;;
30080;SDS011;16902;50.816;12.828;2023-04-24T04:49:49;4.60;;;4.50;;
30080;SDS011;16902;50.816;12.828;2023-04-24T04:54:56;4.85;;;4.60;;
30080;SDS011;16902;50.816;12.828;2023-04-24T05:00:07;4.75;;;4.55;;
30080;SDS011;16902;50.816;12.828;2023-04-24T05:05:20;5.70;;;5.50;;
30080;SDS011;16902;50.816;12.828;2023-04-24T05:10:23;5.72;;;5.43;;
30080;SDS011;16902;50.816;12.828;2023-04-24T05:15:27;5.30;;;5.10;;
30080;SDS011;16902;50.816;12.828;2023-04-24T05:20:34;5.63;;;5.43;;
30080;SDS011;16902;50.816;12.828;2023-04-24T05:25:36;5.43;;;5.22;;
30080;SDS011;16902;50.816;12.828;2023-04-24T05:30:43;5.70;;;5.50;;
30080;SDS011;16902;50.816;12.828;2023-04-24T05:35:48;6.32;;;6.03;;
30080;SDS011;16902;50.816;12.828;2023-04-24T05:40:52;5.60;;;5.40;;
30080;SDS011;16902;50.816;12.828;2023-04-24T05:45:54;5.95;;;5.75;;
30080;SDS011;16902;50.816;12.828;2023-04-24T05:50:56;6.30;;;6.10;;
30080;SDS011;16902;50.816;12.828;2023-04-24T05:55:58;6.88;;;6.68;;
30080;SDS011;16902;50.816;12.828;2023-04-24T06:01:01;7.57;;;7.28;;
30080;SDS011;16902;50.816;12.828;2023-04-24T06:06:05;7.57;;;7.28;;
30080;SDS011;16902;50.816;12.828;2023-04-24T06:11:08;7.70;;;7.30;;
30080;SDS011;16902;50.816;12.828;2023-04-24T06:16:11;7.82;;;7.43;;
30080;SDS011;16902;50.816;12.828;2023-04-24T06:21:17;7.75;;;7.45;;
30080;SDS011;16902;50.816;12.828;2023-04-24T06:26:19;7.93;;;7.63;;
30080;SDS011;16902;50.816;12.828;2023-04-24T06:31:21;7.07;;;6.88;;
30080;SDS011;16902;50.816;12.828;2023-04-24T06:36:23;7.93;;;7.63;;
30080;SDS011;16902;50.816;12.828;2023-04-24T06:41:24;8.30;;;7.90;;
30080;SDS011;16902;50.816;12.828;2023-04-24T06:46:26;8.20;;;7.90;;
30080;SDS011;16902;50.816;12.828;2023-04-24T06:51:29;8.30;;;8.00;;
30080;SDS011;16902;50.816;12.828;2023-04-24T06:56:32;8.68;;;8.38;;
30080;SDS011;16902;50.816;12.828;2023-04-24T07:01:35;7.88;;;7.57;;
30080;SDS011;16902;50.816;12.828;2023-04-24T07:06:38;8.20;;;7.90;;
30080;SDS011;16902;50.816;12.828;2023-04-24T07:11:44;8.10;;;7.80;;
30080;SDS011;16902;50.816;12.828;2023-04-24T07:16:48;8.20;;;7.85;;
30080;SDS011;16902;50.816;12.828;2023-04-24T07:21:51;7.72;;;7.43;;
30080;SDS011;16902;50.816;12.828;2023-04-24T07:26:55;8.38;;;8.07;;
30080;SDS011;16902;50.816;12.828;2023-04-24T07:32:01;8.77;;;8.48;;
30080;SDS011;16902;50.816;12.828;2023-04-24T07:37:04;8.68;;;8.38;;
30080;SDS011;16902;50.816;12.828;2023-04-24T07:42:06;9.65;;;9.25;;
30080;SDS011;16902;50.816;12.828;2023-04-24T07:47:08;9.27;;;8.98;;
30080;SDS011;16902;50.816;12.828;2023-04-24T07:52:10;10.18;;;9.77;;
30080;SDS011;16902;50.816;12.828;2023-04-24T07:57:11;10.60;;;10.20;;
30080;SDS011;16902;50.816;12.828;2023-04-24T08:02:13;10.70;;;10.30;;
30080;SDS011;16902;50.816;12.828;2023-04-24T08:07:16;10.95;;;10.55;;
30080;SDS011;16902;50.816;12.828;2023-04-24T08:12:18;12.05;;;11.65;;
30080;SDS011;16902;50.816;12.828;2023-04-24T08:17:20;11.60;;;11.10;;
30080;SDS011;16902;50.816;12.828;2023-04-24T08:22:21;11.57;;;11.18;;
30080;SDS011;16902;50.816;12.828;2023-04-24T08:27:23;12.10;;;11.60;;
30080;SDS011;16902;50.816;12.828;2023-04-24T08:32:25;12.80;;;12.30;;
30080;SDS011;16902;50.816;12.828;2023-04-24T08:37:30;12.88;;;12.38;;
30080;SDS011;16902;50.816;12.828;2023-04-24T08:42:32;12.45;;;11.77;;
30080;SDS011;16902;50.816;12.828;2023-04-24T08:47:41;12.82;;;12.20;;
30080;SDS011;16902;50.816;12.828;2023-04-24T08:52:43;13.13;;;12.63;;
30080;SDS011;16902;50.816;12.828;2023-04-24T08:57:45;12.35;;;11.90;;
30080;SDS011;16902;50.816;12.828;2023-04-24T09:02:52;12.43;;;11.85;;
30080;SDS011;16902;50.816;12.828;2023-04-24T09:07:56;12.63;;;12.13;;
30080;SDS011;16902;50.816;12.828;2023-04-24T09:12:58;13.02;;;12.45;;
30080;SDS011;16902;50.816;12.828;2023-04-24T09:18:02;13.23;;;12.73;;
30080;SDS011;16902;50.816;12.828;2023-04-24T09:23:07;12.70;;;12.20;;
30080;SDS011;16902;50.816;12.828;2023-04-24T09:28:11;12.25;;;11.85;;
30080;SDS011;16902;50.816;12.828;2023-04-24T09:33:13;12.02;;;11.63;;
30080;SDS011;16902;50.816;12.828;2023-04-24T09:38:16;11.48;;;11.07;;
30080;SDS011;16902;50.816;12.828;2023-04-24T09:43:19;12.35;;;11.95;;
30080;SDS011;16902;50.816;12.828;2023-04-24T09:48:20;12.10;;;11.60;;
30080;SDS011;16902;50.816;12.828;2023-04-24T09:53:31;13.02;;;12.52;;
30080;SDS011;16902;50.816;12.828;2023-04-24T09:58:36;13.23;;;12.73;;
30080;SDS011;16902;50.816;12.828;2023-04-24T10:03:38;13.57;;;13.07;;
30080;SDS011;16902;50.816;12.828;2023-04-24T10:08:44;13.90;;;13.40;;
30080;SDS011;16902;50.816;12.828;2023-04-24T10:13:47;14.70;;;14.10;;
30080;SDS011;16902;50.816;12.828;2023-04-24T10:18:49;14.57;;;13.88;;
30080;SDS011;16902;50.816;12.828;2023-04-24T10:23:51;13.88;;;13.38;;
30080;SDS011;16902;50.816;12.828;2023-04-24T10:28:53;14.50;;;13.90;;
30080;SDS011;16902;50.816;12.828;2023-04-24T10:33:55;14.80;;;14.20;;
30080;SDS011;16902;50.816;12.828;2023-04-24T10:38:59;14.00;;;13.50;;
30080;SDS011;16902;50.816;12.828;2023-04-24T10:44:09;15.23;;;14.63;;
30080;SDS011;16902;50.816;12.828;2023-04-24T10:49:12;15.10;;;14.50;;
30080;SDS011;16902;50.816;12.828;2023-04-24T10:59:34;14.32;;;13.73;;
30080;SDS011;16902;50.816;12.828;2023-04-24T11:04:36;13.85;;;13.35;;
30080;SDS011;16902;50.816;12.828;2023-04-24T11:09:38;14.43;;;13.82;;
30080;SDS011;16902;50.816;12.828;2023-04-24T11:20:01;14.85;;;14.25;;
30080;SDS011;16902;50.816;12.828;2023-04-24T11:25:29;14.38;;;13.77;;
30080;SDS011;16902;50.816;12.828;2023-04-24T11:30:32;14.48;;;13.88;;
30080;SDS011;16902;50.816;12.828;2023-04-24T11:35:41;14.50;;;13.90;;
30080;SDS011;16902;50.816;12.828;2023-04-24T11:40:43;14.93;;;14.32;;
30080;SDS011;16902;50.816;12.828;2023-04-24T11:45:48;14.02;;;13.52;;
30080;SDS011;16902;50.816;12.828;2023-04-24T11:50:50;15.23;;;14.63;;
30080;SDS011;16902;50.816;12.828;2023-04-24T11:55:52;14.40;;;13.85;;
30080;SDS011;16902;50.816;12.828;2023-04-24T12:00:57;14.70;;;14.10;;
30080;SDS011;16902;50.816;12.828;2023-04-24T12:06:06;15.65;;;14.95;;
30080;SDS011;16902;50.816;12.828;2023-04-24T12:11:14;14.80;;;14.20;;
30080;SDS011;16902;50.816;12.828;2023-04-24T12:16:16;15.43;;;14.73;;
30080;SDS011;16902;50.816;12.828;2023-04-24T12:21:19;15.25;;;14.65;;
30080;SDS011;16902;50.816;12.828;2023-04-24T12:26:26;15.43;;;14.80;;
30080;SDS011;16902;50.816;12.828;2023-04-24T12:31:28;14.93;;;14.32;;
30080;SDS011;16902;50.816;12.828;2023-04-24T12:36:31;14.93;;;14.32;;
30080;SDS011;16902;50.816;12.828;2023-04-24T12:41:33;15.77;;;15.18;;
30080;SDS011;16902;50.816;12.828;2023-04-24T12:46:35;15.50;;;14.90;;
30080;SDS011;16902;50.816;12.828;2023-04-24T12:51:37;15.20;;;14.50;;
30080;SDS011;16902;50.816;12.828;2023-04-24T12:56:39;15.43;;;14.82;;
30080;SDS011;16902;50.816;12.828;2023-04-24T13:01:42;15.40;;;14.80;;
30080;SDS011;16902;50.816;12.828;2023-04-24T13:06:44;14.57;;;13.98;;
30080;SDS011;16902;50.816;12.828;2023-04-24T13:11:45;15.52;;;14.82;;
30080;SDS011;16902;50.816;12.828;2023-04-24T13:16:47;15.90;;;15.30;;
30080;SDS011;16902;50.816;12.828;2023-04-24T13:21:49;15.35;;;14.75;;
30080;SDS011;16902;50.816;12.828;2023-04-24T13:26:54;15.45;;;14.85;;
30080;SDS011;16902;50.816;12.828;2023-04-24T13:31:57;14.88;;;14.27;;
30080;SDS011;16902;50.816;12.828;2023-04-24T13:36:59;15.93;;;15.27;;
30080;SDS011;16902;50.816;12.828;2023-04-24T13:42:01;15.50;;;14.90;;
30080;SDS011;16902;50.816;12.828;2023-04-24T13:47:05;15.10;;;14.50;;
30080;SDS011;16902;50.816;12.828;2023-04-24T13:52:07;14.88;;;14.27;;
30080;SDS011;16902;50.816;12.828;2023-04-24T13:57:08;15.35;;;14.75;;
30080;SDS011;16902;50.816;12.828;2023-04-24T14:02:10;16.27;;;15.57;;
30080;SDS011;16902;50.816;12.828;2023-04-24T14:07:12;15.90;;;15.30;;
30080;SDS011;16902;50.816;12.828;2023-04-24T14:12:14;16.33;;;15.55;;
30080;SDS011;16902;50.816;12.828;2023-04-24T14:17:17;15.98;;;15.38;;
30080;SDS011;16902;50.816;12.828;2023-04-24T14:22:19;15.77;;;15.07;;
30080;SDS011;16902;50.816;12.828;2023-04-24T14:27:21;15.13;;;14.52;;
30080;SDS011;16902;50.816;12.828;2023-04-24T14:32:23;15.90;;;15.27;;
30080;SDS011;16902;50.816;12.828;2023-04-24T14:37:24;15.48;;;14.82;;
30080;SDS011;16902;50.816;12.828;2023-04-24T14:42:26;15.85;;;15.18;;
30080;SDS011;16902;50.816;12.828;2023-04-24T14:47:30;15.93;;;15.32;;
30080;SDS011;16902;50.816;12.828;2023-04-24T14:52:31;15.38;;;14.77;;
30080;SDS011;16902;50.816;12.828;2023-04-24T14:57:33;15.38;;;14.77;;
30080;SDS011;16902;50.816;12.828;2023-04-24T15:02:36;15.30;;;14.70;;
30080;SDS011;16902;50.816;12.828;2023-04-24T15:07:41;15.10;;;14.50;;
30080;SDS011;16902;50.816;12.828;2023-04-24T15:12:43;15.50;;;14.70;;
30080;SDS011;16902;50.816;12.828;2023-04-24T15:17:45;15.65;;;14.95;;
30080;SDS011;16902;50.816;12.828;2023-04-24T15:22:46;14.85;;;14.25;;
30080;SDS011;16902;50.816;12.828;2023-04-24T15:27:48;15.60;;;14.98;;
30080;SDS011;16902;50.816;12.828;2023-04-24T15:32:50;14.82;;;14.23;;
30080;SDS011;16902;50.816;12.828;2023-04-24T15:37:52;15.23;;;14.63;;
30080;SDS011;16902;50.816;12.828;2023-04-24T15:42:54;15.57;;;14.98;;
30080;SDS011;16902;50.816;12.828;2023-04-24T15:47:55;16.38;;;15.68;;
30080;SDS011;16902;50.816;12.828;2023-04-24T15:52:57;15.77;;;15.18;;
30080;SDS011;16902;50.816;12.828;2023-04-24T15:57:59;16.00;;;15.30;;
30080;SDS011;16902;50.816;12.828;2023-04-24T16:03:01;15.45;;;14.85;;
30080;SDS011;16902;50.816;12.828;2023-04-24T16:08:03;15.13;;;14.52;;
30080;SDS011;16902;50.816;12.828;2023-04-24T16:13:05;14.75;;;14.15;;
30080;SDS011;16902;50.816;12.828;2023-04-24T16:18:07;14.95;;;14.35;;
30080;SDS011;16902;50.816;12.828;2023-04-24T16:23:09;15.55;;;14.95;;
30080;SDS011;16902;50.816;12.828;2023-04-24T16:28:11;15.40;;;14.80;;
30080;SDS011;16902;50.816;12.828;2023-04-24T16:33:12;15.35;;;14.75;;
30080;SDS011;16902;50.816;12.828;2023-04-24T16:38:14;14.30;;;13.80;;
30080;SDS011;16902;50.816;12.828;2023-04-24T16:43:17;12.30;;;11.80;;
30080;SDS011;16902;50.816;12.828;2023-04-24T16:48:19;11.75;;;11.30;;
30080;SDS011;16902;50.816;12.828;2023-04-24T16:53:20;14.07;;;13.38;;
30080;SDS011;16902;50.816;12.828;2023-04-24T16:58:22;12.75;;;12.25;;
30080;SDS011;16902;50.816;12.828;2023-04-24T17:03:24;12.85;;;12.35;;
30080;SDS011;16902;50.816;12.828;2023-04-24T17:08:26;12.88;;;12.38;;
30080;SDS011;16902;50.816;12.828;2023-04-24T17:13:28;12.27;;;11.82;;
30080;SDS011;16902;50.816;12.828;2023-04-24T17:18:30;12.27;;;11.68;;
30080;SDS011;16902;50.816;12.828;2023-04-24T17:23:31;13.27;;;12.68;;
30080;SDS011;16902;50.816;12.828;2023-04-24T17:28:33;13.15;;;12.55;;
30080;SDS011;16902;50.816;12.828;2023-04-24T17:33:59;13.05;;;12.55;;
30080;SDS011;16902;50.816;12.828;2023-04-24T17:39:18;13.27;;;12.77;;
30080;SDS011;16902;50.816;12.828;2023-04-24T17:44:20;13.50;;;13.00;;
30080;SDS011;16902;50.816;12.828;2023-04-24T17:49:22;13.30;;;12.80;;
30080;SDS011;16902;50.816;12.828;2023-04-24T17:54:26;12.80;;;12.30;;
30080;SDS011;16902;50.816;12.828;2023-04-24T17:59:28;12.63;;;12.13;;
30080;SDS011;16902;50.816;12.828;2023-04-24T18:04:29;12.80;;;12.30;;
30080;SDS011;16902;50.816;12.828;2023-04-24T18:09:31;13.13;;;12.63;;
30080;SDS011;16902;50.816;12.828;2023-04-24T18:14:33;11.48;;;11.07;;
30080;SDS011;16902;50.816;12.828;2023-04-24T18:19:35;11.82;;;11.43;;
30080;SDS011;16902;50.816;12.828;2023-04-24T18:24:36;11.18;;;10.77;;
30080;SDS011;16902;50.816;12.828;2023-04-24T18:29:39;10.23;;;9.82;;
30080;SDS011;16902;50.816;12.828;2023-04-24T18:34:40;8.65;;;8.35;;
30080;SDS011;16902;50.816;12.828;2023-04-24T18:39:42;8.35;;;8.05;;
30080;SDS011;16902;50.816;12.828;2023-04-24T18:44:44;8.50;;;8.20;;
30080;SDS011;16902;50.816;12.828;2023-04-24T18:49:46;8.98;;;8.65;;
30080;SDS011;16902;50.816;12.828;2023-04-24T18:54:48;9.07;;;8.77;;
30080;SDS011;16902;50.816;12.828;2023-04-24T18:59:49;8.82;;;8.52;;
30080;SDS011;16902;50.816;12.828;2023-04-24T19:04:51;9.02;;;8.73;;
30080;SDS011;16902;50.816;12.828;2023-04-24T19:09:53;10.00;;;9.50;;
30080;SDS011;16902;50.816;12.828;2023-04-24T19:14:55;9.13;;;8.82;;
30080;SDS011;16902;50.816;12.828;2023-04-24T19:19:58;9.45;;;9.15;;
30080;SDS011;16902;50.816;12.828;2023-04-24T19:24:59;10.20;;;9.80;;
30080;SDS011;16902;50.816;12.828;2023-04-24T19:30:02;8.98;;;8.65;;
30080;SDS011;16902;50.816;12.828;2023-04-24T19:35:04;9.35;;;8.95;;
30080;SDS011;16902;50.816;12.828;2023-04-24T19:40:06;8.77;;;8.48;;
30080;SDS011;16902;50.816;12.828;2023-04-24T19:45:09;9.43;;;9.13;;
30080;SDS011;16902;50.816;12.828;2023-04-24T19:50:12;9.80;;;9.48;;
30080;SDS011;16902;50.816;12.828;2023-04-24T19:55:15;10.27;;;9.80;;
30080;SDS011;16902;50.816;12.828;2023-04-24T20:00:17;10.27;;;9.88;;
30080;SDS011;16902;50.816;12.828;2023-04-24T20:05:18;10.13;;;9.73;;
30080;SDS011;16902;50.816;12.828;2023-04-24T20:10:21;10.30;;;9.90;;
30080;SDS011;16902;50.816;12.828;2023-04-24T20:15:22;9.93;;;9.52;;
30080;SDS011;16902;50.816;12.828;2023-04-24T20:20:24;9.55;;;9.15;;
30080;SDS011;16902;50.816;12.828;2023-04-24T20:25:26;9.38;;;9.07;;
30080;SDS011;16902;50.816;12.828;2023-04-24T20:30:28;9.60;;;9.20;;
30080;SDS011;16902;50.816;12.828;2023-04-24T20:35:43;9.00;;;8.63;;
30080;SDS011;16902;50.816;12.828;2023-04-24T20:41:36;9.23;;;8.82;;
30080;SDS011;16902;50.816;12.828;2023-04-24T20:47:07;8.73;;;8.40;;
30080;SDS011;16902;50.816;12.828;2023-04-24T20:52:15;8.70;;;8.40;;
30080;SDS011;16902;50.816;12.828;2023-04-24T20:57:18;8.70;;;8.40;;
30080;SDS011;16902;50.816;12.828;2023-04-24T21:02:29;9.93;;;9.43;;
30080;SDS011;16902;50.816;12.828;2023-04-24T21:08:03;9.98;;;9.48;;
30080;SDS011;16902;50.816;12.828;2023-04-24T21:13:06;9.77;;;9.38;;
30080;SDS011;16902;50.816;12.828;2023-04-24T21:24:45;9.27;;;8.77;;
30080;SDS011;16902;50.816;12.828;2023-04-24T21:30:09;9.73;;;9.23;;
30080;SDS011;16902;50.816;12.828;2023-04-24T21:35:21;8.90;;;8.43;;
30080;SDS011;16902;50.816;12.828;2023-04-24T21:40:25;9.07;;;8.57;;
30080;SDS011;16902;50.816;12.828;2023-04-24T21:45:27;8.18;;;7.70;;
30080;SDS011;16902;50.816;12.828;2023-04-24T21:50:30;8.63;;;8.23;;
30080;SDS011;16902;50.816;12.828;2023-04-24T21:55:32;8.30;;;7.90;;
30080;SDS011;16902;50.816;12.828;2023-04-24T22:00:34;7.68;;;7.38;;
30080;SDS011;16902;50.816;12.828;2023-04-24T22:05:37;8.40;;;7.90;;
30080;SDS011;16902;50.816;12.828;2023-04-24T22:10:38;8.20;;;7.70;;
30080;SDS011;16902;50.816;12.828;2023-04-24T22:15:40;8.52;;;8.10;;
30080;SDS011;16902;50.816;12.828;2023-04-24T22:20:42;7.85;;;7.45;;
30080;SDS011;16902;50.816;12.828;2023-04-24T22:25:44;8.13;;;7.72;;
30080;SDS011;16902;50.816;12.828;2023-04-24T22:30:46;7.75;;;7.05;;
30080;SDS011;16902;50.816;12.828;2023-04-24T22:35:48;7.93;;;7.53;;
30080;SDS011;16902;50.816;12.828;2023-04-24T22:40:49;7.63;;;7.25;;
30080;SDS011;16902;50.816;12.828;2023-04-24T22:45:51;8.02;;;7.63;;
30080;SDS011;16902;50.816;12.828;2023-04-24T22:50:53;7.43;;;7.05;;
30080;SDS011;16902;50.816;12.828;2023-04-24T22:55:55;8.32;;;7.60;;
30080;SDS011;16902;50.816;12.828;2023-04-24T23:00:57;7.72;;;7.22;;
30080;SDS011;16902;50.816;12.828;2023-04-24T23:05:59;7.45;;;7.05;;
30080;SDS011;16902;50.816;12.828;2023-04-24T23:11:00;7.25;;;6.85;;
30080;SDS011;16902;50.816;12.828;2023-04-24T23:16:03;7.10;;;6.70;;
30080;SDS011;16902;50.816;12.828;2023-04-24T23:21:05;7.07;;;6.47;;
30080;SDS011;16902;50.816;12.828;2023-04-24T23:26:07;7.22;;;6.65;;
30080;SDS011;16902;50.816;12.828;2023-04-24T23:31:09;7.30;;;6.88;;
30080;SDS011;16902;50.816;12.828;2023-04-24T23:36:10;6.55;;;6.15;;
30080;SDS011;16902;50.816;12.828;2023-04-24T23:41:13;7.18;;;6.68;;
30080;SDS011;16902;50.816;12.828;2023-04-24T23:46:15;7.55;;;7.05;;
30080;SDS011;16902;50.816;12.828;2023-04-24T23:51:16;6.60;;;6.20;;
30080;SDS011;16902;50.816;12.828;2023-04-24T23:56:19;6.85;;;6.45;;
